Time;durP1;ratioP1;P1;durP2;ratioP2;P2;SDS_P1;SDS_P2;PMS_P1;PMS_P2;Temp;Humidity;BMP_temperature;BMP_pressure;BME280_temperature;BME280_humidity;BME280_pressure;Samples;Min_cycle;Max_cycle;Signal;HPM_P1;HPM_P2
2024/03/20 00:00:14;;;;;;;5.50;4.10;;;;;;;;;;525428;28;1236;-73
2024/03/20 00:00:29;;;;;;;5.57;4.25;;;;;;;;;;523740;28;1977;-72
2024/03/20 00:00:45;;;;;;;5.40;4.20;;;;;;;;;;524595;28;1149;-72
2024/03/20 00:01:00;;;;;;;4.72;4.00;;;;;;;;;;524004;28;1019;-72
2024/03/20 00:01:15;;;;;;;5.17;3.90;;;;;;;;;;525803;28;988;-73
2024/03/20 00:01:31;;;;;;;5.87;4.00;;;;;;;;;;525889;28;1122;-73
2024/03/20 00:01:46;;;;;;;5.60;4.07;;;;;;;;;;526012;28;791;-72
2024/03/20 00:02:01;;;;;;;5.10;4.00;;;;;;;;;;526232;28;1162;-72
2024/03/20 00:02:17;;;;;;;5.63;4.10;;;;;;;;;;527023;28;2035;-72
2024/03/20 00:02:32;;;;;;;6.30;3.97;;;;;;;;;;528200;28;797;-72
2024/03/20 00:02:47;;;;;;;6.50;4.00;;;;;;;;;;528253;28;821;-72
2024/03/20 00:03:03;;;;;;;5.53;4.07;;;;;;;;;;528062;28;903;-72
2024/03/20 00:03:18;;;;;;;4.85;3.90;;;;;;;;;;527223;28;1058;-72
2024/03/20 00:03:33;;;;;;;5.17;4.00;;;;;;;;;;526073;28;897;-73
2024/03/20 00:03:49;;;;;;;5.53;4.33;;;;;;;;;;526261;28;1837;-72
2024/03/20 00:04:04;;;;;;;5.28;4.40;;;;;;;;;;526660;28;995;-72
2024/03/20 00:04:19;;;;;;;5.63;4.30;;;;;;;;;;526111;28;896;-72
2024/03/20 00:04:35;;;;;;;7.43;4.30;;;;;;;;;;525822;28;929;-73
2024/03/20 00:04:51;;;;;;;6.85;4.18;;;;;;;;;;525954;28;876;-72
2024/03/20 00:05:07;;;;;;;5.10;4.05;;;;;;;;;;525928;28;1091;-72
2024/03/20 00:05:22;;;;;;;5.63;3.92;;;;;;;;;;525648;28;933;-73
2024/03/20 00:05:38;;;;;;;6.53;3.93;;;;;;;;;;525901;28;2091;-73
2024/03/20 00:05:54;;;;;;;5.97;4.13;;;;;;;;;;525935;28;862;-73
2024/03/20 00:06:09;;;;;;;5.82;4.20;;;;;;;;;;529156;27;1364;-72
2024/03/20 00:06:24;;;;;;;6.07;4.13;;;;;;;;;;529881;27;1014;-73
2024/03/20 00:06:40;;;;;;;5.73;4.20;;;;;;;;;;530194;27;865;-72
2024/03/20 00:06:55;;;;;;;5.07;4.07;;;;;;;;;;527569;28;1283;-72
2024/03/20 00:07:10;;;;;;;5.03;3.88;;;;;;;;;;527819;28;1711;-72
2024/03/20 00:07:26;;;;;;;5.73;4.00;;;;;;;;;;527795;28;1142;-73
2024/03/20 00:07:41;;;;;;;6.63;4.03;;;;;;;;;;527966;28;1037;-72
2024/03/20 00:07:57;;;;;;;5.78;4.00;;;;;;;;;;527756;28;1004;-72
2024/03/20 00:08:12;;;;;;;4.75;4.07;;;;;;;;;;525753;28;1299;-72
2024/03/20 00:08:27;;;;;;;5.03;4.10;;;;;;;;;;525674;28;1278;-72
2024/03/20 00:08:42;;;;;;;5.20;4.10;;;;;;;;;;526136;28;845;-72
2024/03/20 00:08:58;;;;;;;6.20;4.20;;;;;;;;;;527957;28;1988;-72
2024/03/20 00:09:14;;;;;;;5.82;4.00;;;;;;;;;;527958;28;809;-72
2024/03/20 00:09:29;;;;;;;5.60;3.90;;;;;;;;;;525530;28;908;-73
2024/03/20 00:09:45;;;;;;;6.07;3.97;;;;;;;;;;525801;28;1275;-72
2024/03/20 00:10:00;;;;;;;5.20;3.90;;;;;;;;;;525851;28;1118;-72
2024/03/20 00:10:16;;;;;;;4.50;3.77;;;;;;;;;;526370;27;944;-73
2024/03/20 00:10:31;;;;;;;4.63;3.78;;;;;;;;;;527793;28;1641;-73
2024/03/20 00:10:46;;;;;;;4.47;3.80;;;;;;;;;;527924;28;781;-72
2024/03/20 00:11:02;;;;;;;5.57;4.10;;;;;;;;;;527490;28;1007;-72
2024/03/20 00:11:17;;;;;;;6.07;4.15;;;;;;;;;;525864;28;955;-73
2024/03/20 00:11:32;;;;;;;6.17;3.97;;;;;;;;;;525651;28;1166;-73
2024/03/20 00:11:48;;;;;;;6.82;4.00;;;;;;;;;;525570;28;1246;-73
2024/03/20 00:12:03;;;;;;;5.43;3.97;;;;;;;;;;526601;28;1172;-72
2024/03/20 00:12:19;;;;;;;5.70;3.90;;;;;;;;;;527803;28;1228;-72
2024/03/20 00:12:34;;;;;;;6.07;4.07;;;;;;;;;;528420;27;906;-72
2024/03/20 00:12:50;;;;;;;6.23;4.20;;;;;;;;;;524910;28;1211;-73
2024/03/20 00:13:05;;;;;;;5.95;4.20;;;;;;;;;;526551;28;1581;-73
2024/03/20 00:13:20;;;;;;;5.43;4.27;;;;;;;;;;525229;28;1174;-73
2024/03/20 00:13:36;;;;;;;6.50;4.43;;;;;;;;;;523757;28;861;-73
2024/03/20 00:13:51;;;;;;;6.50;4.35;;;;;;;;;;523654;28;1078;-72
2024/03/20 00:14:06;;;;;;;5.10;4.00;;;;;;;;;;521218;28;1334;-73
2024/03/20 00:14:22;;;;;;;5.90;4.07;;;;;;;;;;521125;28;782;-72
2024/03/20 00:14:37;;;;;;;6.35;4.20;;;;;;;;;;521802;28;838;-72
2024/03/20 00:14:52;;;;;;;6.23;4.10;;;;;;;;;;523658;28;1196;-72
2024/03/20 00:15:08;;;;;;;6.30;4.20;;;;;;;;;;523533;28;1098;-73
2024/03/20 00:15:24;;;;;;;5.68;4.30;;;;;;;;;;523591;28;822;-72
2024/03/20 00:15:39;;;;;;;5.18;4.22;;;;;;;;;;523562;28;1008;-72
2024/03/20 00:15:54;;;;;;;6.20;4.40;;;;;;;;;;521731;28;1323;-74
2024/03/20 00:16:10;;;;;;;6.80;4.20;;;;;;;;;;524945;28;1083;-73
2024/03/20 00:16:25;;;;;;;6.00;4.22;;;;;;;;;;524014;28;1007;-72
2024/03/20 00:16:41;;;;;;;6.07;4.30;;;;;;;;;;523988;28;809;-72
2024/03/20 00:16:57;;;;;;;6.87;4.23;;;;;;;;;;525438;28;1133;-72
2024/03/20 00:17:13;;;;;;;6.93;4.60;;;;;;;;;;523702;28;999;-72
2024/03/20 00:17:28;;;;;;;5.53;4.32;;;;;;;;;;523687;28;900;-72
2024/03/20 00:17:46;;;;;;;5.30;4.13;;;;;;;;;;524157;28;854;-72
2024/03/20 00:18:01;;;;;;;6.00;4.35;;;;;;;;;;525926;28;817;-72
2024/03/20 00:18:16;;;;;;;6.57;4.20;;;;;;;;;;527603;28;1316;-72
2024/03/20 00:18:32;;;;;;;6.67;4.30;;;;;;;;;;527780;28;1435;-73
2024/03/20 00:18:47;;;;;;;5.40;4.30;;;;;;;;;;527759;28;1166;-72
2024/03/20 00:19:02;;;;;;;5.07;4.30;;;;;;;;;;527920;28;1214;-73
2024/03/20 00:19:18;;;;;;;6.50;4.30;;;;;;;;;;527381;28;861;-72
2024/03/20 00:19:34;;;;;;;7.00;4.30;;;;;;;;;;527616;28;829;-72
2024/03/20 00:19:50;;;;;;;6.35;4.30;;;;;;;;;;527939;28;928;-72
2024/03/20 00:20:06;;;;;;;5.35;4.20;;;;;;;;;;526029;28;1325;-72
2024/03/20 00:20:24;;;;;;;5.77;4.40;;;;;;;;;;525701;28;806;-72
2024/03/20 00:20:41;;;;;;;5.40;4.13;;;;;;;;;;526713;28;1963;-72
2024/03/20 00:20:56;;;;;;;5.63;3.83;;;;;;;;;;527440;28;1124;-73
2024/03/20 00:21:11;;;;;;;5.50;3.87;;;;;;;;;;527775;28;1277;-72
2024/03/20 00:21:27;;;;;;;4.93;3.90;;;;;;;;;;525732;28;1125;-75
2024/03/20 00:21:42;;;;;;;5.25;4.05;;;;;;;;;;525750;28;944;-72
2024/03/20 00:21:57;;;;;;;5.17;4.10;;;;;;;;;;526353;28;770;-73
2024/03/20 00:22:12;;;;;;;5.73;4.40;;;;;;;;;;525493;28;1210;-72
2024/03/20 00:22:28;;;;;;;5.50;4.50;;;;;;;;;;527581;28;1202;-72
2024/03/20 00:22:43;;;;;;;5.07;4.23;;;;;;;;;;527896;28;857;-73
2024/03/20 00:22:58;;;;;;;6.27;4.23;;;;;;;;;;527793;28;833;-73
2024/03/20 00:23:14;;;;;;;6.00;4.07;;;;;;;;;;523413;28;1344;-76
2024/03/20 00:23:29;;;;;;;5.32;3.92;;;;;;;;;;521551;28;953;-73
2024/03/20 00:23:44;;;;;;;5.77;4.20;;;;;;;;;;521602;28;910;-73
2024/03/20 00:24:00;;;;;;;5.37;4.10;;;;;;;;;;521718;28;1063;-74
2024/03/20 00:24:16;;;;;;;5.88;4.20;;;;;;;;;;523970;28;1193;-72
2024/03/20 00:24:31;;;;;;;6.37;4.50;;;;;;;;;;525699;28;1337;-73
2024/03/20 00:24:47;;;;;;;5.80;4.30;;;;;;;;;;523318;28;1603;-72
2024/03/20 00:25:03;;;;;;;6.47;4.40;;;;;;;;;;523567;28;1481;-72
2024/03/20 00:25:18;;;;;;;6.63;4.40;;;;;;;;;;525909;28;1472;-72
2024/03/20 00:25:33;;;;;;;5.37;4.00;;;;;;;;;;526949;28;1476;-73
2024/03/20 00:25:49;;;;;;;5.00;4.00;;;;;;;;;;526397;28;1034;-72
2024/03/20 00:26:06;;;;;;;4.60;3.95;;;;;;;;;;524845;28;1357;-73
2024/03/20 00:26:21;;;;;;;4.60;3.85;;;;;;;;;;525667;28;1451;-72
2024/03/20 00:26:36;;;;;;;4.67;3.90;;;;;;;;;;526035;28;1364;-73
2024/03/20 00:26:52;;;;;;;5.07;3.95;;;;;;;;;;526048;28;1356;-73
2024/03/20 00:27:07;;;;;;;5.30;4.20;;;;;;;;;;526532;28;1230;-72
2024/03/20 00:27:22;;;;;;;5.10;4.27;;;;;;;;;;523007;28;1418;-73
2024/03/20 00:27:37;;;;;;;5.43;4.10;;;;;;;;;;523458;28;1366;-72
2024/03/20 00:27:53;;;;;;;5.85;4.00;;;;;;;;;;523525;28;1525;-72
2024/03/20 00:28:08;;;;;;;5.80;4.10;;;;;;;;;;527363;28;1350;-72
2024/03/20 00:28:23;;;;;;;5.27;4.20;;;;;;;;;;526920;28;1589;-72
2024/03/20 00:28:38;;;;;;;4.77;4.00;;;;;;;;;;524232;28;1544;-73
2024/03/20 00:28:54;;;;;;;5.25;3.90;;;;;;;;;;524809;28;1570;-72
2024/03/20 00:29:09;;;;;;;5.90;4.10;;;;;;;;;;521975;28;1229;-72
2024/03/20 00:29:24;;;;;;;5.23;4.23;;;;;;;;;;523357;28;1565;-73
2024/03/20 00:29:40;;;;;;;5.50;4.20;;;;;;;;;;521895;28;1506;-72
2024/03/20 00:29:55;;;;;;;5.20;3.93;;;;;;;;;;523175;28;1711;-72
2024/03/20 00:30:11;;;;;;;5.70;4.00;;;;;;;;;;522735;28;1208;-73
2024/03/20 00:30:26;;;;;;;6.25;4.10;;;;;;;;;;521418;28;1335;-73
2024/03/20 00:30:41;;;;;;;5.83;3.97;;;;;;;;;;524355;28;1486;-72
2024/03/20 00:30:57;;;;;;;5.72;4.10;;;;;;;;;;521192;28;1497;-72
2024/03/20 00:31:12;;;;;;;5.57;4.00;;;;;;;;;;521057;28;1419;-73
2024/03/20 00:31:27;;;;;;;5.73;4.00;;;;;;;;;;522356;28;1423;-72
2024/03/20 00:31:43;;;;;;;5.60;4.10;;;;;;;;;;524873;28;1603;-73
2024/03/20 00:31:58;;;;;;;5.37;4.17;;;;;;;;;;523384;28;1505;-72
2024/03/20 00:32:13;;;;;;;5.30;4.30;;;;;;;;;;523288;28;1340;-72
2024/03/20 00:32:29;;;;;;;4.88;4.05;;;;;;;;;;523594;28;1471;-72
2024/03/20 00:32:44;;;;;;;5.87;3.97;;;;;;;;;;525389;28;1611;-72
2024/03/20 00:32:59;;;;;;;7.20;4.20;;;;;;;;;;528606;27;1636;-73
2024/03/20 00:33:15;;;;;;;6.53;4.28;;;;;;;;;;528868;27;1240;-72
2024/03/20 00:33:30;;;;;;;5.37;4.10;;;;;;;;;;527229;27;1428;-72
2024/03/20 00:33:45;;;;;;;5.30;4.10;;;;;;;;;;527958;27;1412;-73
2024/03/20 00:34:01;;;;;;;5.37;4.20;;;;;;;;;;527344;28;1348;-72
2024/03/20 00:34:17;;;;;;;5.53;4.10;;;;;;;;;;527694;27;1555;-73
2024/03/20 00:34:32;;;;;;;5.88;4.10;;;;;;;;;;527359;28;1535;-73
2024/03/20 00:34:48;;;;;;;5.38;4.20;;;;;;;;;;527902;27;1729;-72
2024/03/20 00:35:05;;;;;;;6.80;4.00;;;;;;;;;;526897;28;1476;-72
2024/03/20 00:35:20;;;;;;;7.22;4.03;;;;;;;;;;527113;28;1488;-72
2024/03/20 00:35:37;;;;;;;6.43;4.07;;;;;;;;;;526430;28;1266;-72
2024/03/20 00:35:53;;;;;;;5.93;3.85;;;;;;;;;;525285;28;1471;-72
2024/03/20 00:36:08;;;;;;;6.17;3.97;;;;;;;;;;525329;28;1211;-72
2024/03/20 00:36:23;;;;;;;6.30;4.10;;;;;;;;;;525194;28;1525;-72
2024/03/20 00:36:39;;;;;;;5.40;4.20;;;;;;;;;;525385;28;1412;-72
2024/03/20 00:36:54;;;;;;;5.20;3.97;;;;;;;;;;525838;28;1551;-73
2024/03/20 00:37:09;;;;;;;5.90;3.75;;;;;;;;;;526036;28;1199;-72
2024/03/20 00:37:25;;;;;;;6.23;3.90;;;;;;;;;;524280;28;1418;-72
2024/03/20 00:37:40;;;;;;;6.43;4.20;;;;;;;;;;524693;28;1413;-72
2024/03/20 00:37:55;;;;;;;6.32;4.10;;;;;;;;;;526759;28;1294;-72
2024/03/20 00:38:11;;;;;;;6.67;4.10;;;;;;;;;;526492;28;1238;-73
2024/03/20 00:38:26;;;;;;;6.80;4.33;;;;;;;;;;526257;28;1377;-72
2024/03/20 00:38:41;;;;;;;5.20;4.00;;;;;;;;;;526648;28;1586;-72
2024/03/20 00:38:57;;;;;;;4.93;3.72;;;;;;;;;;526631;28;1543;-74
2024/03/20 00:39:12;;;;;;;5.60;4.00;;;;;;;;;;523438;28;1362;-72
2024/03/20 00:39:27;;;;;;;5.87;4.10;;;;;;;;;;524802;28;1537;-72
2024/03/20 00:39:43;;;;;;;5.97;3.92;;;;;;;;;;522585;28;1352;-72
2024/03/20 00:39:58;;;;;;;6.53;3.90;;;;;;;;;;521314;28;1537;-72
2024/03/20 00:40:13;;;;;;;6.17;3.90;;;;;;;;;;521230;28;1261;-73
2024/03/20 00:40:29;;;;;;;5.47;3.85;;;;;;;;;;521215;28;1969;-72
2024/03/20 00:40:44;;;;;;;5.97;4.00;;;;;;;;;;521349;28;1503;-72
2024/03/20 00:40:59;;;;;;;5.20;4.00;;;;;;;;;;523332;28;1509;-72
2024/03/20 00:41:15;;;;;;;5.30;3.90;;;;;;;;;;524526;28;1089;-74
2024/03/20 00:41:30;;;;;;;5.20;4.00;;;;;;;;;;523277;28;1594;-72
2024/03/20 00:41:47;;;;;;;5.57;4.10;;;;;;;;;;525266;28;1417;-72
2024/03/20 00:42:04;;;;;;;5.85;4.00;;;;;;;;;;526378;28;1341;-72
2024/03/20 00:42:20;;;;;;;6.10;4.00;;;;;;;;;;525102;28;1552;-73
2024/03/20 00:42:35;;;;;;;5.80;4.05;;;;;;;;;;521822;28;1585;-72
2024/03/20 00:42:50;;;;;;;5.55;4.10;;;;;;;;;;523148;28;1406;-73
2024/03/20 00:43:06;;;;;;;5.30;4.20;;;;;;;;;;522395;28;1329;-72
2024/03/20 00:43:21;;;;;;;5.93;4.30;;;;;;;;;;521924;28;1510;-72
2024/03/20 00:43:36;;;;;;;6.43;4.30;;;;;;;;;;522091;28;1474;-73
2024/03/20 00:43:52;;;;;;;5.68;4.30;;;;;;;;;;521639;28;1542;-72
2024/03/20 00:44:07;;;;;;;5.70;4.27;;;;;;;;;;523100;28;1304;-72
2024/03/20 00:44:22;;;;;;;6.13;4.27;;;;;;;;;;523453;28;1461;-72
2024/03/20 00:44:37;;;;;;;5.93;4.38;;;;;;;;;;523482;28;1489;-72
2024/03/20 00:44:53;;;;;;;5.83;4.43;;;;;;;;;;523051;28;1408;-73
2024/03/20 00:45:08;;;;;;;5.77;4.20;;;;;;;;;;524124;28;1212;-72
2024/03/20 00:45:24;;;;;;;5.43;4.13;;;;;;;;;;523529;28;1541;-72
2024/03/20 00:45:39;;;;;;;5.80;4.30;;;;;;;;;;524394;28;1561;-72
2024/03/20 00:45:54;;;;;;;6.13;4.20;;;;;;;;;;522988;28;1173;-72
2024/03/20 00:46:09;;;;;;;5.57;4.10;;;;;;;;;;523233;28;1340;-72
2024/03/20 00:46:25;;;;;;;5.07;4.10;;;;;;;;;;523143;28;1193;-72
2024/03/20 00:46:40;;;;;;;5.83;4.30;;;;;;;;;;522377;28;1514;-73
2024/03/20 00:46:55;;;;;;;5.97;4.30;;;;;;;;;;521211;28;1042;-72
2024/03/20 00:47:11;;;;;;;5.85;4.32;;;;;;;;;;520857;28;1217;-73
2024/03/20 00:47:26;;;;;;;6.93;4.60;;;;;;;;;;521158;28;1775;-72
2024/03/20 00:47:42;;;;;;;6.68;4.50;;;;;;;;;;520709;28;1367;-72
2024/03/20 00:47:57;;;;;;;5.93;4.23;;;;;;;;;;521524;28;1537;-73
2024/03/20 00:48:12;;;;;;;6.40;4.50;;;;;;;;;;522917;28;1273;-73
2024/03/20 00:48:28;;;;;;;6.65;4.60;;;;;;;;;;522188;28;1418;-72
2024/03/20 00:48:43;;;;;;;6.40;4.43;;;;;;;;;;522659;28;1209;-72
2024/03/20 00:48:58;;;;;;;6.90;4.55;;;;;;;;;;524357;28;1465;-72
2024/03/20 00:49:13;;;;;;;6.10;4.70;;;;;;;;;;522932;28;1187;-78
2024/03/20 00:49:29;;;;;;;5.20;4.40;;;;;;;;;;524913;28;1378;-72
2024/03/20 00:49:45;;;;;;;5.03;4.30;;;;;;;;;;525160;28;1552;-72
2024/03/20 00:50:00;;;;;;;6.88;4.43;;;;;;;;;;523474;28;1485;-72
2024/03/20 00:50:15;;;;;;;6.53;4.20;;;;;;;;;;525695;28;1385;-72
2024/03/20 00:50:31;;;;;;;4.63;3.97;;;;;;;;;;527025;28;1539;-73
2024/03/20 00:50:47;;;;;;;5.13;4.20;;;;;;;;;;525602;28;1531;-72
2024/03/20 00:51:03;;;;;;;5.07;4.15;;;;;;;;;;525603;28;1582;-72
2024/03/20 00:51:18;;;;;;;5.47;4.18;;;;;;;;;;524963;28;1408;-72
2024/03/20 00:51:34;;;;;;;6.80;4.53;;;;;;;;;;523203;28;1555;-72
2024/03/20 00:51:50;;;;;;;6.63;4.60;;;;;;;;;;525070;28;1477;-73
2024/03/20 00:52:05;;;;;;;6.20;4.40;;;;;;;;;;526075;28;1253;-72
2024/03/20 00:52:21;;;;;;;6.50;4.40;;;;;;;;;;525131;28;1527;-72
2024/03/20 00:52:36;;;;;;;6.63;4.50;;;;;;;;;;525307;28;1420;-73
2024/03/20 00:52:51;;;;;;;6.18;4.35;;;;;;;;;;525270;28;1632;-73
2024/03/20 00:53:06;;;;;;;5.60;4.10;;;;;;;;;;525087;28;1190;-72
2024/03/20 00:53:22;;;;;;;5.53;4.10;;;;;;;;;;524670;28;1398;-72
2024/03/20 00:53:37;;;;;;;5.57;4.35;;;;;;;;;;525478;28;1438;-72
2024/03/20 00:53:53;;;;;;;5.47;4.20;;;;;;;;;;525227;28;1497;-72
2024/03/20 00:54:08;;;;;;;5.13;4.03;;;;;;;;;;523010;28;1480;-72
2024/03/20 00:54:24;;;;;;;5.55;4.30;;;;;;;;;;522271;28;1347;-72
2024/03/20 00:54:39;;;;;;;5.87;4.50;;;;;;;;;;523057;28;1494;-76
2024/03/20 00:54:55;;;;;;;5.85;4.32;;;;;;;;;;523074;28;1343;-72
2024/03/20 00:55:10;;;;;;;6.10;4.40;;;;;;;;;;521066;28;1407;-72
2024/03/20 00:55:25;;;;;;;5.05;4.13;;;;;;;;;;521926;28;1205;-72
2024/03/20 00:55:41;;;;;;;4.57;3.73;;;;;;;;;;521619;28;1193;-73
2024/03/20 00:55:56;;;;;;;4.63;3.72;;;;;;;;;;522427;28;1224;-72
2024/03/20 00:56:12;;;;;;;5.63;4.07;;;;;;;;;;525137;28;1035;-72
2024/03/20 00:56:27;;;;;;;6.67;4.30;;;;;;;;;;525323;28;958;-72
2024/03/20 00:56:43;;;;;;;5.20;4.00;;;;;;;;;;525322;28;1152;-72
2024/03/20 00:56:58;;;;;;;4.70;4.00;;;;;;;;;;526704;28;1155;-72
2024/03/20 00:57:13;;;;;;;5.30;4.10;;;;;;;;;;527358;28;1150;-72
2024/03/20 00:57:29;;;;;;;6.53;4.27;;;;;;;;;;529173;28;1064;-74
2024/03/20 00:57:44;;;;;;;6.93;4.30;;;;;;;;;;527000;28;1032;-72
2024/03/20 00:57:59;;;;;;;6.28;4.18;;;;;;;;;;526653;28;1301;-72
2024/03/20 00:58:15;;;;;;;6.43;4.30;;;;;;;;;;527148;28;1057;-73
2024/03/20 00:58:32;;;;;;;5.60;4.13;;;;;;;;;;524952;28;1547;-73
2024/03/20 00:58:47;;;;;;;5.38;3.92;;;;;;;;;;523237;28;1429;-72
2024/03/20 00:59:04;;;;;;;5.75;4.10;;;;;;;;;;523109;28;1002;-72
2024/03/20 00:59:20;;;;;;;4.85;4.10;;;;;;;;;;522848;28;1156;-72
2024/03/20 00:59:35;;;;;;;5.68;4.28;;;;;;;;;;522681;28;2230;-72
2024/03/20 00:59:52;;;;;;;5.90;4.30;;;;;;;;;;522706;28;1144;-72
2024/03/20 01:00:07;;;;;;;6.18;4.40;;;;;;;;;;524066;28;2121;-72
2024/03/20 01:00:23;;;;;;;6.60;4.43;;;;;;;;;;523830;28;1510;-73
2024/03/20 01:00:39;;;;;;;7.15;4.32;;;;;;;;;;525467;28;1971;-72
2024/03/20 01:00:54;;;;;;;6.75;4.20;;;;;;;;;;524551;28;1498;-75
2024/03/20 01:01:09;;;;;;;5.30;4.10;;;;;;;;;;523250;28;1504;-72
2024/03/20 01:01:25;;;;;;;5.63;4.20;;;;;;;;;;523039;28;1022;-72
2024/03/20 01:01:40;;;;;;;5.40;4.40;;;;;;;;;;520977;28;1292;-72
2024/03/20 01:01:55;;;;;;;5.73;4.20;;;;;;;;;;519341;28;953;-72
2024/03/20 01:02:11;;;;;;;7.17;4.23;;;;;;;;;;520769;28;1486;-72
2024/03/20 01:02:26;;;;;;;6.40;4.33;;;;;;;;;;521370;28;1083;-72
2024/03/20 01:02:41;;;;;;;4.93;4.05;;;;;;;;;;519400;28;1068;-72
2024/03/20 01:02:56;;;;;;;4.73;3.70;;;;;;;;;;519548;28;1045;-72
2024/03/20 01:03:13;;;;;;;4.70;3.73;;;;;;;;;;519318;28;1287;-72
2024/03/20 01:03:28;;;;;;;5.53;3.83;;;;;;;;;;521680;28;914;-72
2024/03/20 01:03:43;;;;;;;6.40;4.10;;;;;;;;;;521330;28;1197;-72
2024/03/20 01:03:59;;;;;;;5.97;4.30;;;;;;;;;;523115;28;878;-72
2024/03/20 01:04:16;;;;;;;5.45;4.40;;;;;;;;;;519356;28;1593;-72
2024/03/20 01:04:33;;;;;;;5.68;4.55;;;;;;;;;;521623;28;925;-72
2024/03/20 01:04:48;;;;;;;5.22;4.22;;;;;;;;;;524066;28;1100;-72
2024/03/20 01:05:03;;;;;;;5.67;4.33;;;;;;;;;;522409;28;1374;-72
2024/03/20 01:05:19;;;;;;;7.10;4.57;;;;;;;;;;520603;28;1145;-72
2024/03/20 01:05:34;;;;;;;6.45;4.50;;;;;;;;;;520060;28;969;-72
2024/03/20 01:05:49;;;;;;;5.30;4.57;;;;;;;;;;521581;28;811;-72
2024/03/20 01:06:05;;;;;;;6.63;4.73;;;;;;;;;;519806;28;1229;-73
2024/03/20 01:06:20;;;;;;;7.10;4.53;;;;;;;;;;522325;28;759;-72
2024/03/20 01:06:35;;;;;;;5.83;4.50;;;;;;;;;;521206;28;1112;-72
2024/03/20 01:06:51;;;;;;;5.80;4.70;;;;;;;;;;521610;28;815;-72
2024/03/20 01:07:06;;;;;;;6.13;4.80;;;;;;;;;;523669;28;1007;-72
2024/03/20 01:07:21;;;;;;;6.57;4.60;;;;;;;;;;525707;28;913;-72
2024/03/20 01:07:37;;;;;;;6.63;4.33;;;;;;;;;;523540;28;1378;-72
2024/03/20 01:07:52;;;;;;;7.15;4.60;;;;;;;;;;523724;28;984;-72
2024/03/20 01:08:07;;;;;;;6.77;4.60;;;;;;;;;;523463;28;1198;-72
2024/03/20 01:08:23;;;;;;;6.63;4.37;;;;;;;;;;523636;28;871;-72
2024/03/20 01:08:40;;;;;;;6.88;4.45;;;;;;;;;;523261;28;1159;-72
2024/03/20 01:08:55;;;;;;;5.50;4.35;;;;;;;;;;523599;28;928;-72
2024/03/20 01:09:10;;;;;;;5.90;4.43;;;;;;;;;;523371;28;1425;-72
2024/03/20 01:09:25;;;;;;;6.00;4.53;;;;;;;;;;523641;28;864;-72
2024/03/20 01:09:41;;;;;;;6.20;4.63;;;;;;;;;;525756;28;794;-72
2024/03/20 01:09:56;;;;;;;6.57;4.50;;;;;;;;;;523865;28;1303;-72
2024/03/20 01:10:11;;;;;;;6.07;4.30;;;;;;;;;;524012;28;861;-72
2024/03/20 01:10:27;;;;;;;5.37;4.40;;;;;;;;;;523317;28;1159;-72
2024/03/20 01:10:42;;;;;;;5.07;4.32;;;;;;;;;;525676;28;900;-72
2024/03/20 01:10:57;;;;;;;5.87;4.37;;;;;;;;;;525659;28;952;-72
2024/03/20 01:11:12;;;;;;;7.00;4.30;;;;;;;;;;523302;28;1107;-72
2024/03/20 01:11:28;;;;;;;6.40;4.43;;;;;;;;;;523188;28;1269;-73
2024/03/20 01:11:44;;;;;;;4.97;4.30;;;;;;;;;;523884;28;881;-72
2024/03/20 01:11:59;;;;;;;4.77;4.17;;;;;;;;;;525614;28;965;-72
2024/03/20 01:12:14;;;;;;;5.13;4.20;;;;;;;;;;523672;28;1191;-72
2024/03/20 01:12:35;;;;;;;5.53;4.13;;;;;;;;;;525472;28;830;-72
2024/03/20 01:12:51;;;;;;;6.00;4.40;;;;;;;;;;525700;28;869;-72
2024/03/20 01:13:06;;;;;;;6.55;4.50;;;;;;;;;;525568;28;999;-72
2024/03/20 01:13:22;;;;;;;7.30;4.70;;;;;;;;;;526725;28;853;-72
2024/03/20 01:13:38;;;;;;;6.10;4.47;;;;;;;;;;527769;28;905;-73
2024/03/20 01:13:53;;;;;;;5.38;4.28;;;;;;;;;;527805;28;912;-72
2024/03/20 01:14:08;;;;;;;5.53;4.43;;;;;;;;;;526104;28;1196;-72
2024/03/20 01:14:24;;;;;;;6.80;4.60;;;;;;;;;;526350;28;1332;-72
2024/03/20 01:14:39;;;;;;;6.88;4.35;;;;;;;;;;527202;28;1276;-72
2024/03/20 01:14:54;;;;;;;5.70;4.43;;;;;;;;;;525671;28;1043;-72
2024/03/20 01:15:10;;;;;;;6.30;4.60;;;;;;;;;;526358;28;1147;-72
2024/03/20 01:15:25;;;;;;;7.32;4.53;;;;;;;;;;527473;28;1206;-72
2024/03/20 01:15:40;;;;;;;7.27;5.00;;;;;;;;;;527824;28;849;-72
2024/03/20 01:15:55;;;;;;;6.43;4.73;;;;;;;;;;527752;28;860;-72
2024/03/20 01:16:11;;;;;;;6.60;4.68;;;;;;;;;;525725;28;1281;-72
2024/03/20 01:16:28;;;;;;;6.57;4.70;;;;;;;;;;525231;28;1359;-72
2024/03/20 01:16:43;;;;;;;5.93;4.57;;;;;;;;;;523488;28;1430;-73
2024/03/20 01:16:59;;;;;;;5.63;4.63;;;;;;;;;;523521;28;798;-72
2024/03/20 01:17:15;;;;;;;5.10;4.35;;;;;;;;;;523418;28;1126;-72
2024/03/20 01:17:33;;;;;;;5.22;4.25;;;;;;;;;;523355;28;1264;-72
2024/03/20 01:17:48;;;;;;;5.55;4.25;;;;;;;;;;523700;28;882;-72
2024/03/20 01:18:04;;;;;;;4.93;4.25;;;;;;;;;;523466;28;1016;-72
2024/03/20 01:18:19;;;;;;;4.97;4.43;;;;;;;;;;524122;28;934;-73
2024/03/20 01:18:35;;;;;;;6.10;4.60;;;;;;;;;;523448;28;1161;-72
2024/03/20 01:18:50;;;;;;;6.63;4.80;;;;;;;;;;523467;28;1332;-74
2024/03/20 01:19:05;;;;;;;6.93;4.87;;;;;;;;;;521872;28;1163;-72
2024/03/20 01:19:20;;;;;;;8.27;4.90;;;;;;;;;;522751;28;1032;-72
2024/03/20 01:19:36;;;;;;;7.45;4.88;;;;;;;;;;523471;28;818;-73
2024/03/20 01:19:51;;;;;;;5.70;4.70;;;;;;;;;;523706;28;973;-72
2024/03/20 01:20:07;;;;;;;5.50;4.77;;;;;;;;;;522217;28;1258;-72
2024/03/20 01:20:23;;;;;;;5.43;4.60;;;;;;;;;;522551;28;909;-72
2024/03/20 01:20:38;;;;;;;6.45;4.70;;;;;;;;;;523246;28;1927;-72
2024/03/20 01:20:53;;;;;;;5.90;4.80;;;;;;;;;;524031;28;870;-74
2024/03/20 01:21:08;;;;;;;5.87;4.50;;;;;;;;;;526683;28;1219;-72
2024/03/20 01:21:24;;;;;;;6.82;4.50;;;;;;;;;;524684;28;1440;-73
2024/03/20 01:21:39;;;;;;;6.27;4.53;;;;;;;;;;525815;28;988;-73
2024/03/20 01:21:55;;;;;;;6.30;4.70;;;;;;;;;;525662;28;1256;-73
2024/03/20 01:22:11;;;;;;;6.32;4.65;;;;;;;;;;524047;28;1071;-73
2024/03/20 01:22:31;;;;;;;6.07;4.55;;;;;;;;;;525087;28;1007;-73
2024/03/20 01:22:47;;;;;;;5.78;4.57;;;;;;;;;;523533;28;1122;-73
2024/03/20 01:23:02;;;;;;;6.80;4.97;;;;;;;;;;524730;28;1595;-73
2024/03/20 01:23:18;;;;;;;6.95;4.90;;;;;;;;;;527053;28;1639;-73
2024/03/20 01:23:34;;;;;;;7.68;4.90;;;;;;;;;;527783;28;826;-73
2024/03/20 01:23:49;;;;;;;7.33;4.97;;;;;;;;;;526716;28;814;-72
2024/03/20 01:24:04;;;;;;;5.97;4.93;;;;;;;;;;526013;28;2128;-73
2024/03/20 01:24:20;;;;;;;6.30;4.78;;;;;;;;;;524183;28;2101;-73
2024/03/20 01:24:35;;;;;;;6.30;4.63;;;;;;;;;;525227;28;2288;-73
2024/03/20 01:24:50;;;;;;;5.90;4.80;;;;;;;;;;525654;28;1120;-73
2024/03/20 01:25:08;;;;;;;5.53;4.72;;;;;;;;;;523270;28;1057;-73
2024/03/20 01:25:24;;;;;;;5.53;4.68;;;;;;;;;;523611;28;945;-73
2024/03/20 01:25:39;;;;;;;5.67;4.60;;;;;;;;;;523333;28;976;-73
2024/03/20 01:25:55;;;;;;;7.13;4.60;;;;;;;;;;524209;28;803;-73
2024/03/20 01:26:10;;;;;;;7.27;4.63;;;;;;;;;;526166;28;1062;-74
2024/03/20 01:26:25;;;;;;;6.53;4.67;;;;;;;;;;525894;28;1004;-73
2024/03/20 01:26:41;;;;;;;6.55;4.90;;;;;;;;;;525399;28;810;-73
2024/03/20 01:26:56;;;;;;;6.67;4.87;;;;;;;;;;525619;28;916;-73
2024/03/20 01:27:11;;;;;;;6.73;4.63;;;;;;;;;;525622;28;1090;-73
2024/03/20 01:27:27;;;;;;;7.05;4.78;;;;;;;;;;527487;28;822;-73
2024/03/20 01:27:42;;;;;;;6.57;4.80;;;;;;;;;;527955;28;849;-73
2024/03/20 01:27:57;;;;;;;5.77;4.70;;;;;;;;;;527773;28;872;-72
2024/03/20 01:28:14;;;;;;;5.38;4.55;;;;;;;;;;527835;28;987;-73
2024/03/20 01:28:29;;;;;;;6.68;4.55;;;;;;;;;;525844;28;830;-73
2024/03/20 01:28:45;;;;;;;6.78;4.60;;;;;;;;;;525599;28;878;-73
2024/03/20 01:29:00;;;;;;;7.00;4.77;;;;;;;;;;525979;28;1004;-73
2024/03/20 01:29:15;;;;;;;8.30;4.93;;;;;;;;;;527455;28;881;-75
2024/03/20 01:29:31;;;;;;;8.10;4.82;;;;;;;;;;525495;28;912;-72
2024/03/20 01:29:46;;;;;;;6.90;4.80;;;;;;;;;;525865;28;1019;-73
2024/03/20 01:30:02;;;;;;;6.27;4.80;;;;;;;;;;526005;28;1062;-73
2024/03/20 01:30:18;;;;;;;5.70;4.60;;;;;;;;;;527160;28;995;-73
2024/03/20 01:30:33;;;;;;;6.10;4.72;;;;;;;;;;525867;28;1078;-73
2024/03/20 01:30:50;;;;;;;6.53;4.63;;;;;;;;;;525643;28;810;-73
2024/03/20 01:31:05;;;;;;;6.22;4.60;;;;;;;;;;526511;28;1037;-73
2024/03/20 01:31:21;;;;;;;6.85;4.90;;;;;;;;;;527843;28;1011;-73
2024/03/20 01:31:36;;;;;;;6.88;4.85;;;;;;;;;;527794;28;860;-73
2024/03/20 01:31:52;;;;;;;6.40;4.90;;;;;;;;;;527996;28;1041;-73
2024/03/20 01:32:07;;;;;;;6.23;5.03;;;;;;;;;;526794;28;982;-73
2024/03/20 01:32:22;;;;;;;6.83;5.10;;;;;;;;;;525914;28;834;-73
2024/03/20 01:32:38;;;;;;;6.65;5.05;;;;;;;;;;525551;28;925;-73
2024/03/20 01:32:53;;;;;;;5.87;4.80;;;;;;;;;;525727;28;1038;-73
2024/03/20 01:33:08;;;;;;;5.93;4.80;;;;;;;;;;527306;28;1071;-73
2024/03/20 01:33:24;;;;;;;5.63;4.77;;;;;;;;;;527055;28;1319;-73
2024/03/20 01:33:39;;;;;;;6.00;4.80;;;;;;;;;;527680;28;841;-73
2024/03/20 01:33:54;;;;;;;7.90;5.00;;;;;;;;;;526337;28;968;-73
2024/03/20 01:34:10;;;;;;;7.00;4.80;;;;;;;;;;527866;28;991;-73
2024/03/20 01:34:25;;;;;;;6.63;4.90;;;;;;;;;;525689;28;1074;-73
2024/03/20 01:34:40;;;;;;;7.93;5.20;;;;;;;;;;525802;28;1023;-73
2024/03/20 01:34:55;;;;;;;7.07;5.00;;;;;;;;;;525780;28;1032;-73
2024/03/20 01:35:11;;;;;;;5.60;4.70;;;;;;;;;;527108;28;1171;-73
2024/03/20 01:35:26;;;;;;;5.90;4.87;;;;;;;;;;527640;28;960;-73
2024/03/20 01:35:42;;;;;;;6.40;5.10;;;;;;;;;;525603;28;1150;-73
2024/03/20 01:35:58;;;;;;;5.60;4.63;;;;;;;;;;525633;28;1162;-73
2024/03/20 01:36:13;;;;;;;5.63;4.63;;;;;;;;;;525150;28;1003;-73
2024/03/20 01:36:28;;;;;;;6.20;4.80;;;;;;;;;;525596;28;904;-73